sensor_id;sensor_type;location;lat;lon;timestamp;temperature;humidity
21734;DHT22;11029;47.820;10.534;2023-09-07T00:01:01;13.60;68.60
21734;DHT22;11029;47.820;10.534;2023-09-07T00:03:30;13.40;69.90
21734;DHT22;11029;47.820;10.534;2023-09-07T00:05:56;13.40;70.40
21734;DHT22;11029;47.820;10.534;2023-09-07T00:08:23;13.40;68.90
21734;DHT22;11029;47.820;10.534;2023-09-07T00:10:52;13.40;68.80
21734;DHT22;11029;47.820;10.534;2023-09-07T00:13:18;13.30;68.80
21734;DHT22;11029;47.820;10.534;2023-09-07T00:15:45;13.20;69.80
21734;DHT22;11029;47.820;10.534;2023-09-07T00:18:12;13.20;70.10
21734;DHT22;11029;47.820;10.534;2023-09-07T00:20:39;13.20;70.60
21734;DHT22;11029;47.820;10.534;2023-09-07T00:23:07;13.20;70.80
21734;DHT22;11029;47.820;10.534;2023-09-07T00:25:34;13.10;71.20
21734;DHT22;11029;47.820;10.534;2023-09-07T00:28:00;13.10;70.90
21734;DHT22;11029;47.820;10.534;2023-09-07T00:30:27;13.10;70.10
21734;DHT22;11029;47.820;10.534;2023-09-07T00:32:54;13.10;70.00
21734;DHT22;11029;47.820;10.534;2023-09-07T00:35:21;13.20;70.30
21734;DHT22;11029;47.820;10.534;2023-09-07T00:37:48;13.30;68.90
21734;DHT22;11029;47.820;10.534;2023-09-07T00:40:15;13.40;68.30
21734;DHT22;11029;47.820;10.534;2023-09-07T00:42:42;13.20;68.40
21734;DHT22;11029;47.820;10.534;2023-09-07T00:45:09;13.10;68.70
21734;DHT22;11029;47.820;10.534;2023-09-07T00:47:36;13.10;69.00
21734;DHT22;11029;47.820;10.534;2023-09-07T00:50:04;13.10;68.80
21734;DHT22;11029;47.820;10.534;2023-09-07T00:52:34;13.10;68.90
21734;DHT22;11029;47.820;10.534;2023-09-07T00:55:04;13.00;69.10
21734;DHT22;11029;47.820;10.534;2023-09-07T00:57:32;13.00;69.20
21734;DHT22;11029;47.820;10.534;2023-09-07T01:00:00;12.90;69.90
21734;DHT22;11029;47.820;10.534;2023-09-07T01:02:27;12.90;69.90
21734;DHT22;11029;47.820;10.534;2023-09-07T01:04:57;12.80;70.90
21734;DHT22;11029;47.820;10.534;2023-09-07T01:07:26;12.80;71.50
21734;DHT22;11029;47.820;10.534;2023-09-07T01:10:00;12.90;70.10
21734;DHT22;11029;47.820;10.534;2023-09-07T01:12:29;12.80;70.70
21734;DHT22;11029;47.820;10.534;2023-09-07T01:14:57;12.70;70.60
21734;DHT22;11029;47.820;10.534;2023-09-07T01:17:25;12.60;71.10
21734;DHT22;11029;47.820;10.534;2023-09-07T01:19:54;12.60;70.80
21734;DHT22;11029;47.820;10.534;2023-09-07T01:22:24;12.50;70.50
21734;DHT22;11029;47.820;10.534;2023-09-07T01:24:51;12.30;71.10
21734;DHT22;11029;47.820;10.534;2023-09-07T01:27:21;12.30;71.10
21734;DHT22;11029;47.820;10.534;2023-09-07T01:29:48;12.40;71.00
21734;DHT22;11029;47.820;10.534;2023-09-07T01:32:15;12.40;70.90
21734;DHT22;11029;47.820;10.534;2023-09-07T01:34:42;12.40;71.30
21734;DHT22;11029;47.820;10.534;2023-09-07T01:37:09;12.40;71.50
21734;DHT22;11029;47.820;10.534;2023-09-07T01:39:36;12.40;71.20
21734;DHT22;11029;47.820;10.534;2023-09-07T01:42:03;12.50;70.70
21734;DHT22;11029;47.820;10.534;2023-09-07T01:44:30;12.40;70.70
21734;DHT22;11029;47.820;10.534;2023-09-07T01:46:57;12.40;70.60
21734;DHT22;11029;47.820;10.534;2023-09-07T01:49:26;12.20;72.50
21734;DHT22;11029;47.820;10.534;2023-09-07T01:51:53;12.20;72.10
21734;DHT22;11029;47.820;10.534;2023-09-07T01:54:21;12.10;73.10
21734;DHT22;11029;47.820;10.534;2023-09-07T01:56:48;11.90;74.80
21734;DHT22;11029;47.820;10.534;2023-09-07T01:59:15;11.90;74.60
21734;DHT22;11029;47.820;10.534;2023-09-07T02:01:42;11.90;74.80
21734;DHT22;11029;47.820;10.534;2023-09-07T02:04:09;12.00;75.10
21734;DHT22;11029;47.820;10.534;2023-09-07T02:06:36;12.10;74.60
21734;DHT22;11029;47.820;10.534;2023-09-07T02:09:03;12.10;74.90
21734;DHT22;11029;47.820;10.534;2023-09-07T02:11:31;11.90;75.70
21734;DHT22;11029;47.820;10.534;2023-09-07T02:13:58;11.90;76.10
21734;DHT22;11029;47.820;10.534;2023-09-07T02:16:25;12.00;75.70
21734;DHT22;11029;47.820;10.534;2023-09-07T02:19:02;12.10;75.50
21734;DHT22;11029;47.820;10.534;2023-09-07T02:21:30;12.20;74.40
21734;DHT22;11029;47.820;10.534;2023-09-07T02:23:58;12.20;75.00
21734;DHT22;11029;47.820;10.534;2023-09-07T02:26:25;12.10;75.50
21734;DHT22;11029;47.820;10.534;2023-09-07T02:28:52;12.10;74.90
21734;DHT22;11029;47.820;10.534;2023-09-07T02:31:20;12.10;74.90
21734;DHT22;11029;47.820;10.534;2023-09-07T02:33:48;12.00;75.00
21734;DHT22;11029;47.820;10.534;2023-09-07T02:36:15;12.00;74.70
21734;DHT22;11029;47.820;10.534;2023-09-07T02:38:42;11.90;75.60
21734;DHT22;11029;47.820;10.534;2023-09-07T02:41:09;12.00;74.80
21734;DHT22;11029;47.820;10.534;2023-09-07T02:43:36;12.00;74.70
21734;DHT22;11029;47.820;10.534;2023-09-07T02:46:03;12.00;75.10
21734;DHT22;11029;47.820;10.534;2023-09-07T02:48:30;12.10;74.40
21734;DHT22;11029;47.820;10.534;2023-09-07T02:50:57;12.10;74.50
21734;DHT22;11029;47.820;10.534;2023-09-07T02:53:25;12.10;74.20
21734;DHT22;11029;47.820;10.534;2023-09-07T02:55:52;12.10;73.60
21734;DHT22;11029;47.820;10.534;2023-09-07T02:58:19;12.10;73.80
21734;DHT22;11029;47.820;10.534;2023-09-07T03:00:47;12.20;72.70
21734;DHT22;11029;47.820;10.534;2023-09-07T03:03:17;12.10;72.70
21734;DHT22;11029;47.820;10.534;2023-09-07T03:05:46;12.00;72.50
21734;DHT22;11029;47.820;10.534;2023-09-07T03:08:13;11.90;72.90
21734;DHT22;11029;47.820;10.534;2023-09-07T03:10:40;12.00;72.00
21734;DHT22;11029;47.820;10.534;2023-09-07T03:13:09;12.00;71.70
21734;DHT22;11029;47.820;10.534;2023-09-07T03:15:37;11.90;71.80
21734;DHT22;11029;47.820;10.534;2023-09-07T03:18:07;11.80;71.80
21734;DHT22;11029;47.820;10.534;2023-09-07T03:20:36;11.80;71.90
21734;DHT22;11029;47.820;10.534;2023-09-07T03:23:03;11.80;71.70
21734;DHT22;11029;47.820;10.534;2023-09-07T03:25:30;11.70;71.80
21734;DHT22;11029;47.820;10.534;2023-09-07T03:27:58;11.60;72.20
21734;DHT22;11029;47.820;10.534;2023-09-07T03:30:25;11.60;72.10
21734;DHT22;11029;47.820;10.534;2023-09-07T03:32:53;11.60;71.60
21734;DHT22;11029;47.820;10.534;2023-09-07T03:35:21;11.60;71.90
21734;DHT22;11029;47.820;10.534;2023-09-07T03:37:48;11.60;71.90
21734;DHT22;11029;47.820;10.534;2023-09-07T03:40:15;11.60;72.10
21734;DHT22;11029;47.820;10.534;2023-09-07T03:42:42;11.60;71.60
21734;DHT22;11029;47.820;10.534;2023-09-07T03:45:11;11.70;71.10
21734;DHT22;11029;47.820;10.534;2023-09-07T03:47:39;11.60;71.80
21734;DHT22;11029;47.820;10.534;2023-09-07T03:50:07;11.50;71.70
21734;DHT22;11029;47.820;10.534;2023-09-07T03:52:34;11.50;71.80
21734;DHT22;11029;47.820;10.534;2023-09-07T03:55:03;11.60;71.30
21734;DHT22;11029;47.820;10.534;2023-09-07T03:57:31;11.70;71.10
21734;DHT22;11029;47.820;10.534;2023-09-07T03:59:58;11.80;71.10
21734;DHT22;11029;47.820;10.534;2023-09-07T04:02:25;11.80;70.50
21734;DHT22;11029;47.820;10.534;2023-09-07T04:04:54;11.80;71.00
21734;DHT22;11029;47.820;10.534;2023-09-07T04:07:22;11.70;71.00
21734;DHT22;11029;47.820;10.534;2023-09-07T04:09:50;11.80;71.00
21734;DHT22;11029;47.820;10.534;2023-09-07T04:12:17;11.80;70.80
21734;DHT22;11029;47.820;10.534;2023-09-07T04:14:44;11.80;70.60
21734;DHT22;11029;47.820;10.534;2023-09-07T04:17:12;11.70;70.30
21734;DHT22;11029;47.820;10.534;2023-09-07T04:19:40;11.80;70.40
21734;DHT22;11029;47.820;10.534;2023-09-07T04:22:07;11.70;70.70
21734;DHT22;11029;47.820;10.534;2023-09-07T04:24:34;11.60;71.40
21734;DHT22;11029;47.820;10.534;2023-09-07T04:27:02;11.60;71.30
21734;DHT22;11029;47.820;10.534;2023-09-07T04:29:31;11.60;71.50
21734;DHT22;11029;47.820;10.534;2023-09-07T04:31:58;11.70;71.20
21734;DHT22;11029;47.820;10.534;2023-09-07T04:34:25;11.70;71.00
21734;DHT22;11029;47.820;10.534;2023-09-07T04:36:53;11.80;70.20
21734;DHT22;11029;47.820;10.534;2023-09-07T04:39:20;11.70;70.20
21734;DHT22;11029;47.820;10.534;2023-09-07T04:41:48;11.60;71.10
21734;DHT22;11029;47.820;10.534;2023-09-07T04:44:15;11.50;71.70
21734;DHT22;11029;47.820;10.534;2023-09-07T04:46:42;11.60;72.00
21734;DHT22;11029;47.820;10.534;2023-09-07T04:49:10;11.60;72.40
21734;DHT22;11029;47.820;10.534;2023-09-07T04:51:39;11.70;72.80
21734;DHT22;11029;47.820;10.534;2023-09-07T04:54:06;11.80;72.50
21734;DHT22;11029;47.820;10.534;2023-09-07T04:56:33;11.70;72.40
21734;DHT22;11029;47.820;10.534;2023-09-07T04:59:00;11.70;73.00
21734;DHT22;11029;47.820;10.534;2023-09-07T05:01:27;11.80;72.60
21734;DHT22;11029;47.820;10.534;2023-09-07T05:03:55;11.80;73.10
21734;DHT22;11029;47.820;10.534;2023-09-07T05:06:22;11.80;72.90
21734;DHT22;11029;47.820;10.534;2023-09-07T05:08:51;11.80;72.80
21734;DHT22;11029;47.820;10.534;2023-09-07T05:11:18;11.80;72.40
21734;DHT22;11029;47.820;10.534;2023-09-07T05:13:45;11.80;72.00
21734;DHT22;11029;47.820;10.534;2023-09-07T05:16:12;11.80;71.70
21734;DHT22;11029;47.820;10.534;2023-09-07T05:18:41;11.80;72.00
21734;DHT22;11029;47.820;10.534;2023-09-07T05:21:13;11.90;71.70
21734;DHT22;11029;47.820;10.534;2023-09-07T05:23:41;11.90;71.80
21734;DHT22;11029;47.820;10.534;2023-09-07T05:26:08;12.10;71.20
21734;DHT22;11029;47.820;10.534;2023-09-07T05:28:35;12.20;70.70
21734;DHT22;11029;47.820;10.534;2023-09-07T05:31:02;12.40;69.80
21734;DHT22;11029;47.820;10.534;2023-09-07T05:33:31;12.30;70.60
21734;DHT22;11029;47.820;10.534;2023-09-07T05:35:58;12.40;71.00
21734;DHT22;11029;47.820;10.534;2023-09-07T05:38:25;12.40;71.20
21734;DHT22;11029;47.820;10.534;2023-09-07T05:40:53;12.30;72.00
21734;DHT22;11029;47.820;10.534;2023-09-07T05:43:23;12.20;73.40
21734;DHT22;11029;47.820;10.534;2023-09-07T05:45:50;12.40;73.70
21734;DHT22;11029;47.820;10.534;2023-09-07T05:48:17;12.60;73.20
21734;DHT22;11029;47.820;10.534;2023-09-07T05:50:46;12.80;72.90
21734;DHT22;11029;47.820;10.534;2023-09-07T05:53:13;12.90;71.80
21734;DHT22;11029;47.820;10.534;2023-09-07T05:55:40;13.00;71.50
21734;DHT22;11029;47.820;10.534;2023-09-07T05:58:08;13.00;71.70
21734;DHT22;11029;47.820;10.534;2023-09-07T06:00:38;13.10;72.10
21734;DHT22;11029;47.820;10.534;2023-09-07T06:03:10;13.30;72.10
21734;DHT22;11029;47.820;10.534;2023-09-07T06:05:38;13.60;71.70
21734;DHT22;11029;47.820;10.534;2023-09-07T06:08:08;13.80;71.10
21734;DHT22;11029;47.820;10.534;2023-09-07T06:10:36;14.00;70.70
21734;DHT22;11029;47.820;10.534;2023-09-07T06:13:04;14.10;70.60
21734;DHT22;11029;47.820;10.534;2023-09-07T06:15:31;14.10;70.80
21734;DHT22;11029;47.820;10.534;2023-09-07T06:17:59;14.20;70.50
21734;DHT22;11029;47.820;10.534;2023-09-07T06:20:26;14.30;70.60
21734;DHT22;11029;47.820;10.534;2023-09-07T06:22:56;14.50;70.90
21734;DHT22;11029;47.820;10.534;2023-09-07T06:25:23;14.50;71.10
21734;DHT22;11029;47.820;10.534;2023-09-07T06:27:50;14.60;71.10
21734;DHT22;11029;47.820;10.534;2023-09-07T06:32:57;14.80;71.30
21734;DHT22;11029;47.820;10.534;2023-09-07T06:35:25;14.90;71.30
21734;DHT22;11029;47.820;10.534;2023-09-07T06:37:52;15.00;71.20
21734;DHT22;11029;47.820;10.534;2023-09-07T06:40:22;15.20;71.40
21734;DHT22;11029;47.820;10.534;2023-09-07T06:42:52;15.30;71.30
21734;DHT22;11029;47.820;10.534;2023-09-07T06:45:22;15.40;71.70
21734;DHT22;11029;47.820;10.534;2023-09-07T06:47:50;15.60;72.10
21734;DHT22;11029;47.820;10.534;2023-09-07T06:50:20;15.70;72.50
21734;DHT22;11029;47.820;10.534;2023-09-07T06:52:48;15.90;71.70
21734;DHT22;11029;47.820;10.534;2023-09-07T06:55:15;16.00;71.30
21734;DHT22;11029;47.820;10.534;2023-09-07T06:57:44;16.10;71.00
21734;DHT22;11029;47.820;10.534;2023-09-07T07:00:11;16.20;71.00
21734;DHT22;11029;47.820;10.534;2023-09-07T07:02:39;16.40;71.10
21734;DHT22;11029;47.820;10.534;2023-09-07T07:05:07;16.50;71.40
21734;DHT22;11029;47.820;10.534;2023-09-07T07:07:35;16.70;73.00
21734;DHT22;11029;47.820;10.534;2023-09-07T07:10:02;16.80;73.10
21734;DHT22;11029;47.820;10.534;2023-09-07T07:12:30;17.00;72.60
21734;DHT22;11029;47.820;10.534;2023-09-07T07:15:02;17.20;73.60
21734;DHT22;11029;47.820;10.534;2023-09-07T07:17:29;17.40;72.50
21734;DHT22;11029;47.820;10.534;2023-09-07T07:19:56;17.40;71.40
21734;DHT22;11029;47.820;10.534;2023-09-07T07:22:23;17.50;71.70
21734;DHT22;11029;47.820;10.534;2023-09-07T07:24:51;17.60;71.40
21734;DHT22;11029;47.820;10.534;2023-09-07T07:27:19;17.80;70.90
21734;DHT22;11029;47.820;10.534;2023-09-07T07:29:46;17.80;70.90
21734;DHT22;11029;47.820;10.534;2023-09-07T07:32:13;17.90;71.30
21734;DHT22;11029;47.820;10.534;2023-09-07T07:34:40;18.00;71.10
21734;DHT22;11029;47.820;10.534;2023-09-07T07:37:07;18.20;72.30
21734;DHT22;11029;47.820;10.534;2023-09-07T07:39:34;18.40;72.80
21734;DHT22;11029;47.820;10.534;2023-09-07T07:42:02;18.60;71.70
21734;DHT22;11029;47.820;10.534;2023-09-07T07:44:30;18.80;72.80
21734;DHT22;11029;47.820;10.534;2023-09-07T07:46:57;18.90;72.20
21734;DHT22;11029;47.820;10.534;2023-09-07T07:49:24;19.10;72.70
21734;DHT22;11029;47.820;10.534;2023-09-07T07:51:51;19.20;71.50
21734;DHT22;11029;47.820;10.534;2023-09-07T07:54:19;19.30;70.60
21734;DHT22;11029;47.820;10.534;2023-09-07T07:56:46;19.40;69.40
21734;DHT22;11029;47.820;10.534;2023-09-07T07:59:13;19.50;71.10
21734;DHT22;11029;47.820;10.534;2023-09-07T08:01:40;19.70;72.40
21734;DHT22;11029;47.820;10.534;2023-09-07T08:04:07;19.90;71.80
21734;DHT22;11029;47.820;10.534;2023-09-07T08:06:34;20.00;71.60
21734;DHT22;11029;47.820;10.534;2023-09-07T08:09:01;20.10;71.10
21734;DHT22;11029;47.820;10.534;2023-09-07T08:11:28;20.30;71.90
21734;DHT22;11029;47.820;10.534;2023-09-07T08:13:55;20.40;70.60
21734;DHT22;11029;47.820;10.534;2023-09-07T08:16:22;20.50;69.90
21734;DHT22;11029;47.820;10.534;2023-09-07T08:18:49;20.60;70.50
21734;DHT22;11029;47.820;10.534;2023-09-07T08:21:17;20.70;71.60
21734;DHT22;11029;47.820;10.534;2023-09-07T08:23:44;20.80;70.40
21734;DHT22;11029;47.820;10.534;2023-09-07T08:26:12;20.90;70.10
21734;DHT22;11029;47.820;10.534;2023-09-07T08:28:42;20.90;69.90
21734;DHT22;11029;47.820;10.534;2023-09-07T08:31:12;21.00;69.60
21734;DHT22;11029;47.820;10.534;2023-09-07T08:33:41;21.10;70.40
21734;DHT22;11029;47.820;10.534;2023-09-07T08:36:07;21.10;70.40
21734;DHT22;11029;47.820;10.534;2023-09-07T08:38:35;21.30;70.50
21734;DHT22;11029;47.820;10.534;2023-09-07T08:41:02;21.30;69.30
21734;DHT22;11029;47.820;10.534;2023-09-07T08:43:32;21.40;69.40
21734;DHT22;11029;47.820;10.534;2023-09-07T08:46:12;21.50;70.40
21734;DHT22;11029;47.820;10.534;2023-09-07T08:48:42;21.60;69.70
21734;DHT22;11029;47.820;10.534;2023-09-07T08:51:09;21.70;68.00
21734;DHT22;11029;47.820;10.534;2023-09-07T08:53:39;21.80;68.10
21734;DHT22;11029;47.820;10.534;2023-09-07T08:56:06;21.90;67.60
21734;DHT22;11029;47.820;10.534;2023-09-07T08:58:36;22.00;68.30
21734;DHT22;11029;47.820;10.534;2023-09-07T09:01:04;22.10;68.60
21734;DHT22;11029;47.820;10.534;2023-09-07T09:03:37;22.20;67.30
21734;DHT22;11029;47.820;10.534;2023-09-07T09:06:04;22.20;66.60
21734;DHT22;11029;47.820;10.534;2023-09-07T09:08:45;22.20;68.20
21734;DHT22;11029;47.820;10.534;2023-09-07T09:11:13;22.30;66.70
21734;DHT22;11029;47.820;10.534;2023-09-07T09:13:40;22.40;66.60
21734;DHT22;11029;47.820;10.534;2023-09-07T09:16:08;22.60;65.60
21734;DHT22;11029;47.820;10.534;2023-09-07T09:18:36;22.70;66.20
21734;DHT22;11029;47.820;10.534;2023-09-07T09:21:03;22.70;64.40
21734;DHT22;11029;47.820;10.534;2023-09-07T09:23:36;22.60;64.50
21734;DHT22;11029;47.820;10.534;2023-09-07T09:26:04;22.70;65.50
21734;DHT22;11029;47.820;10.534;2023-09-07T09:28:32;22.80;65.30
21734;DHT22;11029;47.820;10.534;2023-09-07T09:31:02;22.80;64.70
21734;DHT22;11029;47.820;10.534;2023-09-07T09:33:32;22.80;64.20
21734;DHT22;11029;47.820;10.534;2023-09-07T09:36:02;22.90;66.60
21734;DHT22;11029;47.820;10.534;2023-09-07T09:38:29;22.90;64.60
21734;DHT22;11029;47.820;10.534;2023-09-07T09:40:59;23.00;64.50
21734;DHT22;11029;47.820;10.534;2023-09-07T09:43:26;23.10;64.80
21734;DHT22;11029;47.820;10.534;2023-09-07T09:45:53;23.20;64.40
21734;DHT22;11029;47.820;10.534;2023-09-07T09:48:20;23.40;64.70
21734;DHT22;11029;47.820;10.534;2023-09-07T09:50:49;23.40;64.30
21734;DHT22;11029;47.820;10.534;2023-09-07T09:53:16;23.50;66.50
21734;DHT22;11029;47.820;10.534;2023-09-07T09:55:46;23.70;65.50
21734;DHT22;11029;47.820;10.534;2023-09-07T09:58:14;23.80;64.70
21734;DHT22;11029;47.820;10.534;2023-09-07T10:00:51;23.80;64.00
21734;DHT22;11029;47.820;10.534;2023-09-07T10:05:46;23.50;64.20
21734;DHT22;11029;47.820;10.534;2023-09-07T10:08:14;23.50;63.70
21734;DHT22;11029;47.820;10.534;2023-09-07T10:10:43;23.60;63.50
21734;DHT22;11029;47.820;10.534;2023-09-07T10:13:13;23.70;64.20
21734;DHT22;11029;47.820;10.534;2023-09-07T10:15:40;23.80;63.90
21734;DHT22;11029;47.820;10.534;2023-09-07T10:18:12;23.60;63.70
21734;DHT22;11029;47.820;10.534;2023-09-07T10:20:58;23.60;63.40
21734;DHT22;11029;47.820;10.534;2023-09-07T10:23:42;23.80;63.10
21734;DHT22;11029;47.820;10.534;2023-09-07T10:26:14;23.80;63.00
21734;DHT22;11029;47.820;10.534;2023-09-07T10:28:43;23.60;63.20
21734;DHT22;11029;47.820;10.534;2023-09-07T10:31:15;23.50;63.70
21734;DHT22;11029;47.820;10.534;2023-09-07T10:33:42;23.50;62.80
21734;DHT22;11029;47.820;10.534;2023-09-07T10:36:24;23.60;62.50
21734;DHT22;11029;47.820;10.534;2023-09-07T10:38:52;23.50;62.50
21734;DHT22;11029;47.820;10.534;2023-09-07T10:41:22;23.60;62.90
21734;DHT22;11029;47.820;10.534;2023-09-07T10:43:51;23.70;62.50
21734;DHT22;11029;47.820;10.534;2023-09-07T10:46:19;23.80;63.30
21734;DHT22;11029;47.820;10.534;2023-09-07T10:48:49;24.00;65.70
21734;DHT22;11029;47.820;10.534;2023-09-07T10:51:18;24.30;64.30
21734;DHT22;11029;47.820;10.534;2023-09-07T10:53:45;24.50;63.30
21734;DHT22;11029;47.820;10.534;2023-09-07T10:56:12;24.50;62.30
21734;DHT22;11029;47.820;10.534;2023-09-07T10:58:39;24.50;64.20
21734;DHT22;11029;47.820;10.534;2023-09-07T11:01:09;24.60;62.50
21734;DHT22;11029;47.820;10.534;2023-09-07T11:03:37;24.70;64.30
21734;DHT22;11029;47.820;10.534;2023-09-07T11:06:08;24.70;62.30
21734;DHT22;11029;47.820;10.534;2023-09-07T11:08:35;24.90;62.10
21734;DHT22;11029;47.820;10.534;2023-09-07T11:11:03;24.90;62.20
21734;DHT22;11029;47.820;10.534;2023-09-07T11:13:30;24.90;61.20
21734;DHT22;11029;47.820;10.534;2023-09-07T11:15:58;24.90;61.80
21734;DHT22;11029;47.820;10.534;2023-09-07T11:18:26;25.10;61.40
21734;DHT22;11029;47.820;10.534;2023-09-07T11:20:54;25.00;61.60
21734;DHT22;11029;47.820;10.534;2023-09-07T11:23:21;25.00;61.00
21734;DHT22;11029;47.820;10.534;2023-09-07T11:25:50;25.10;61.00
21734;DHT22;11029;47.820;10.534;2023-09-07T11:28:19;25.20;60.60
21734;DHT22;11029;47.820;10.534;2023-09-07T11:30:54;25.20;59.60
21734;DHT22;11029;47.820;10.534;2023-09-07T11:33:25;25.10;60.10
21734;DHT22;11029;47.820;10.534;2023-09-07T11:35:52;25.30;60.60
21734;DHT22;11029;47.820;10.534;2023-09-07T11:38:22;25.50;59.80
21734;DHT22;11029;47.820;10.534;2023-09-07T11:40:49;25.40;60.10
21734;DHT22;11029;47.820;10.534;2023-09-07T11:43:17;25.40;60.50
21734;DHT22;11029;47.820;10.534;2023-09-07T11:45:47;25.50;59.70
21734;DHT22;11029;47.820;10.534;2023-09-07T11:48:14;25.50;60.10
21734;DHT22;11029;47.820;10.534;2023-09-07T11:50:41;25.70;58.80
21734;DHT22;11029;47.820;10.534;2023-09-07T11:53:08;25.80;58.30
21734;DHT22;11029;47.820;10.534;2023-09-07T11:55:35;25.80;58.80
21734;DHT22;11029;47.820;10.534;2023-09-07T11:58:03;25.80;58.00
21734;DHT22;11029;47.820;10.534;2023-09-07T12:00:31;25.70;57.90
21734;DHT22;11029;47.820;10.534;2023-09-07T12:02:59;25.90;57.80
21734;DHT22;11029;47.820;10.534;2023-09-07T12:05:26;25.90;57.50
21734;DHT22;11029;47.820;10.534;2023-09-07T12:07:53;25.90;57.50
21734;DHT22;11029;47.820;10.534;2023-09-07T12:10:20;26.00;57.50
21734;DHT22;11029;47.820;10.534;2023-09-07T12:12:47;26.00;57.80
21734;DHT22;11029;47.820;10.534;2023-09-07T12:15:14;26.10;57.70
21734;DHT22;11029;47.820;10.534;2023-09-07T12:17:40;26.20;56.80
21734;DHT22;11029;47.820;10.534;2023-09-07T12:20:08;26.30;56.60
21734;DHT22;11029;47.820;10.534;2023-09-07T12:22:37;26.40;56.10
21734;DHT22;11029;47.820;10.534;2023-09-07T12:25:07;26.40;56.30
21734;DHT22;11029;47.820;10.534;2023-09-07T12:27:45;26.50;56.00
21734;DHT22;11029;47.820;10.534;2023-09-07T12:30:18;26.60;56.60
21734;DHT22;11029;47.820;10.534;2023-09-07T12:32:46;26.80;56.30
21734;DHT22;11029;47.820;10.534;2023-09-07T12:35:13;26.90;56.00
21734;DHT22;11029;47.820;10.534;2023-09-07T12:37:41;26.80;55.90
21734;DHT22;11029;47.820;10.534;2023-09-07T12:40:08;26.70;55.70
21734;DHT22;11029;47.820;10.534;2023-09-07T12:42:47;26.70;55.30
21734;DHT22;11029;47.820;10.534;2023-09-07T12:45:14;26.80;55.00
21734;DHT22;11029;47.820;10.534;2023-09-07T12:47:41;27.00;54.70
21734;DHT22;11029;47.820;10.534;2023-09-07T12:50:08;27.10;54.90
21734;DHT22;11029;47.820;10.534;2023-09-07T12:52:35;27.20;54.80
21734;DHT22;11029;47.820;10.534;2023-09-07T12:55:05;27.40;54.40
21734;DHT22;11029;47.820;10.534;2023-09-07T12:57:32;27.40;54.00
21734;DHT22;11029;47.820;10.534;2023-09-07T12:59:59;27.50;52.90
21734;DHT22;11029;47.820;10.534;2023-09-07T13:02:26;27.60;53.90
21734;DHT22;11029;47.820;10.534;2023-09-07T13:04:56;27.60;53.10
21734;DHT22;11029;47.820;10.534;2023-09-07T13:07:22;27.60;52.60
21734;DHT22;11029;47.820;10.534;2023-09-07T13:09:49;27.70;53.40
21734;DHT22;11029;47.820;10.534;2023-09-07T13:12:16;27.80;54.40
21734;DHT22;11029;47.820;10.534;2023-09-07T13:14:43;27.80;53.10
21734;DHT22;11029;47.820;10.534;2023-09-07T13:17:11;28.00;52.60
21734;DHT22;11029;47.820;10.534;2023-09-07T13:19:38;28.00;52.60
21734;DHT22;11029;47.820;10.534;2023-09-07T13:22:05;28.10;53.80
21734;DHT22;11029;47.820;10.534;2023-09-07T13:24:33;28.10;52.60
21734;DHT22;11029;47.820;10.534;2023-09-07T13:27:01;28.30;52.00
21734;DHT22;11029;47.820;10.534;2023-09-07T13:29:30;28.40;51.70
21734;DHT22;11029;47.820;10.534;2023-09-07T13:31:58;28.30;52.10
21734;DHT22;11029;47.820;10.534;2023-09-07T13:34:25;28.40;51.30
21734;DHT22;11029;47.820;10.534;2023-09-07T13:36:52;28.50;51.10
21734;DHT22;11029;47.820;10.534;2023-09-07T13:39:18;28.80;50.20
21734;DHT22;11029;47.820;10.534;2023-09-07T13:41:45;28.80;50.10
21734;DHT22;11029;47.820;10.534;2023-09-07T13:44:13;28.70;49.40
21734;DHT22;11029;47.820;10.534;2023-09-07T13:46:40;28.80;49.30
21734;DHT22;11029;47.820;10.534;2023-09-07T13:49:07;28.90;48.80
21734;DHT22;11029;47.820;10.534;2023-09-07T13:51:34;29.10;49.10
21734;DHT22;11029;47.820;10.534;2023-09-07T13:54:08;29.40;47.90
21734;DHT22;11029;47.820;10.534;2023-09-07T13:56:35;29.50;47.60
21734;DHT22;11029;47.820;10.534;2023-09-07T13:59:03;29.50;47.80
21734;DHT22;11029;47.820;10.534;2023-09-07T14:01:29;29.50;47.70
21734;DHT22;11029;47.820;10.534;2023-09-07T14:03:56;29.60;48.30
21734;DHT22;11029;47.820;10.534;2023-09-07T14:06:23;29.70;48.20
21734;DHT22;11029;47.820;10.534;2023-09-07T14:08:50;29.70;48.40
21734;DHT22;11029;47.820;10.534;2023-09-07T14:11:17;29.60;47.70
21734;DHT22;11029;47.820;10.534;2023-09-07T14:13:44;29.60;46.60
21734;DHT22;11029;47.820;10.534;2023-09-07T14:16:11;29.50;46.70
21734;DHT22;11029;47.820;10.534;2023-09-07T14:18:38;29.40;47.00
21734;DHT22;11029;47.820;10.534;2023-09-07T14:21:05;29.50;46.70
21734;DHT22;11029;47.820;10.534;2023-09-07T14:23:31;29.70;46.90
21734;DHT22;11029;47.820;10.534;2023-09-07T14:25:59;29.80;46.20
21734;DHT22;11029;47.820;10.534;2023-09-07T14:28:25;29.70;46.60
21734;DHT22;11029;47.820;10.534;2023-09-07T14:30:52;29.80;46.80
21734;DHT22;11029;47.820;10.534;2023-09-07T14:33:21;29.50;46.70
21734;DHT22;11029;47.820;10.534;2023-09-07T14:35:47;29.50;47.20
21734;DHT22;11029;47.820;10.534;2023-09-07T14:38:18;29.70;47.20
21734;DHT22;11029;47.820;10.534;2023-09-07T14:40:45;29.80;46.00
21734;DHT22;11029;47.820;10.534;2023-09-07T14:43:12;29.90;45.90
21734;DHT22;11029;47.820;10.534;2023-09-07T14:45:40;29.90;46.50
21734;DHT22;11029;47.820;10.534;2023-09-07T14:48:07;29.80;46.10
21734;DHT22;11029;47.820;10.534;2023-09-07T14:50:34;30.00;45.60
21734;DHT22;11029;47.820;10.534;2023-09-07T14:53:01;30.20;45.30
21734;DHT22;11029;47.820;10.534;2023-09-07T14:55:28;30.30;45.10
21734;DHT22;11029;47.820;10.534;2023-09-07T14:57:54;30.60;44.60
21734;DHT22;11029;47.820;10.534;2023-09-07T15:00:22;30.90;44.50
21734;DHT22;11029;47.820;10.534;2023-09-07T15:02:49;31.40;44.00
21734;DHT22;11029;47.820;10.534;2023-09-07T15:05:16;31.90;43.40
21734;DHT22;11029;47.820;10.534;2023-09-07T15:07:42;32.40;42.00
21734;DHT22;11029;47.820;10.534;2023-09-07T15:10:09;32.90;41.40
21734;DHT22;11029;47.820;10.534;2023-09-07T15:12:36;33.30;40.90
21734;DHT22;11029;47.820;10.534;2023-09-07T15:15:03;34.40;39.70
21734;DHT22;11029;47.820;10.534;2023-09-07T15:17:29;35.50;37.70
21734;DHT22;11029;47.820;10.534;2023-09-07T15:19:56;36.70;36.10
21734;DHT22;11029;47.820;10.534;2023-09-07T15:22:23;37.40;35.50
21734;DHT22;11029;47.820;10.534;2023-09-07T15:24:49;37.90;34.50